sensor_id;sensor_type;location;lat;lon;timestamp;pressure;altitude;pressure_sealevel;temperature;humidity
45253;BME280;63171;50.520;30.486;2022-09-09T00:00:32;100573.63;;;10.81;59.73
45253;BME280;63171;50.520;30.486;2022-09-09T00:01:33;100577.53;;;10.90;60.11
45253;BME280;63171;50.520;30.486;2022-09-09T00:02:27;100574.34;;;10.85;60.13
45253;BME280;63171;50.520;30.486;2022-09-09T00:03:23;100575.00;;;10.88;60.16
45253;BME280;63171;50.520;30.486;2022-09-09T00:04:21;100571.28;;;10.92;60.44
45253;BME280;63171;50.520;30.486;2022-09-09T00:05:21;100577.75;;;11.03;60.37
45253;BME280;63171;50.520;30.486;2022-09-09T00:06:21;100577.88;;;10.84;60.36
45253;BME280;63171;50.520;30.486;2022-09-09T00:07:18;100575.19;;;10.85;60.62
45253;BME280;63171;50.520;30.486;2022-09-09T00:08:16;100572.75;;;10.98;60.75
45253;BME280;63171;50.520;30.486;2022-09-09T00:09:12;100578.03;;;11.14;60.77
45253;BME280;63171;50.520;30.486;2022-09-09T00:10:14;100579.75;;;10.82;60.49
45253;BME280;63171;50.520;30.486;2022-09-09T00:11:09;100578.72;;;10.84;60.77
45253;BME280;63171;50.520;30.486;2022-09-09T00:12:05;100580.97;;;10.75;60.74
45253;BME280;63171;50.520;30.486;2022-09-09T00:13:08;100579.66;;;10.66;60.80
45253;BME280;63171;50.520;30.486;2022-09-09T00:14:12;100580.59;;;10.82;61.17
45253;BME280;63171;50.520;30.486;2022-09-09T00:15:10;100578.94;;;10.80;61.20
45253;BME280;63171;50.520;30.486;2022-09-09T00:16:08;100579.03;;;10.78;61.21
45253;BME280;63171;50.520;30.486;2022-09-09T00:17:08;100586.41;;;10.87;61.50
45253;BME280;63171;50.520;30.486;2022-09-09T00:18:07;100581.22;;;11.03;61.31
45253;BME280;63171;50.520;30.486;2022-09-09T00:19:04;100576.91;;;11.02;61.36
45253;BME280;63171;50.520;30.486;2022-09-09T00:19:56;100576.22;;;10.99;61.46
45253;BME280;63171;50.520;30.486;2022-09-09T00:20:55;100576.94;;;10.68;61.30
45253;BME280;63171;50.520;30.486;2022-09-09T00:21:52;100571.78;;;10.66;61.44
45253;BME280;63171;50.520;30.486;2022-09-09T00:22:49;100573.06;;;10.59;61.61
45253;BME280;63171;50.520;30.486;2022-09-09T00:23:44;100577.13;;;10.47;61.46
45253;BME280;63171;50.520;30.486;2022-09-09T00:24:40;100576.88;;;10.52;61.91
45253;BME280;63171;50.520;30.486;2022-09-09T00:25:37;100583.06;;;10.51;61.85
45253;BME280;63171;50.520;30.486;2022-09-09T00:26:37;100579.09;;;10.77;62.29
45253;BME280;63171;50.520;30.486;2022-09-09T00:27:31;100590.06;;;10.85;62.53
45253;BME280;63171;50.520;30.486;2022-09-09T00:28:27;100582.94;;;10.87;62.39
45253;BME280;63171;50.520;30.486;2022-09-09T00:29:25;100581.66;;;10.61;62.21
45253;BME280;63171;50.520;30.486;2022-09-09T00:30:17;100583.03;;;10.68;62.52
45253;BME280;63171;50.520;30.486;2022-09-09T00:31:15;100585.25;;;10.93;62.62
45253;BME280;63171;50.520;30.486;2022-09-09T00:32:12;100589.75;;;10.74;62.32
45253;BME280;63171;50.520;30.486;2022-09-09T00:33:13;100593.59;;;10.84;62.60
45253;BME280;63171;50.520;30.486;2022-09-09T00:34:09;100587.19;;;10.89;62.73
45253;BME280;63171;50.520;30.486;2022-09-09T00:35:10;100583.72;;;10.89;62.85
45253;BME280;63171;50.520;30.486;2022-09-09T00:36:12;100585.50;;;10.88;62.80
45253;BME280;63171;50.520;30.486;2022-09-09T00:37:03;100591.34;;;10.93;62.60
45253;BME280;63171;50.520;30.486;2022-09-09T00:37:58;100588.28;;;10.85;62.85
45253;BME280;63171;50.520;30.486;2022-09-09T00:38:52;100595.38;;;10.66;62.58
45253;BME280;63171;50.520;30.486;2022-09-09T00:39:46;100588.66;;;10.78;62.92
45253;BME280;63171;50.520;30.486;2022-09-09T00:40:41;100597.63;;;10.74;62.87
45253;BME280;63171;50.520;30.486;2022-09-09T00:41:44;100595.69;;;10.77;63.10
45253;BME280;63171;50.520;30.486;2022-09-09T00:42:41;100594.91;;;10.75;63.14
45253;BME280;63171;50.520;30.486;2022-09-09T00:43:35;100588.28;;;10.68;62.85
45253;BME280;63171;50.520;30.486;2022-09-09T00:44:30;100599.75;;;10.65;63.04
45253;BME280;63171;50.520;30.486;2022-09-09T00:45:39;100602.72;;;10.59;63.09
45253;BME280;63171;50.520;30.486;2022-09-09T00:46:53;100602.63;;;10.61;63.17
45253;BME280;63171;50.520;30.486;2022-09-09T00:47:49;100609.19;;;10.70;63.23
45253;BME280;63171;50.520;30.486;2022-09-09T00:48:48;100606.47;;;10.54;63.25
45253;BME280;63171;50.520;30.486;2022-09-09T00:49:50;100609.41;;;10.48;63.37
45253;BME280;63171;50.520;30.486;2022-09-09T00:50:50;100595.75;;;10.76;63.69
45253;BME280;63171;50.520;30.486;2022-09-09T00:51:49;100603.00;;;10.53;63.59
45253;BME280;63171;50.520;30.486;2022-09-09T00:52:50;100605.63;;;10.71;63.78
45253;BME280;63171;50.520;30.486;2022-09-09T00:54:03;100602.44;;;10.81;63.93
45253;BME280;63171;50.520;30.486;2022-09-09T00:55:05;100602.63;;;10.61;63.74
45253;BME280;63171;50.520;30.486;2022-09-09T00:56:01;100600.38;;;10.88;64.05
45253;BME280;63171;50.520;30.486;2022-09-09T00:57:13;100602.25;;;10.69;63.74
45253;BME280;63171;50.520;30.486;2022-09-09T00:58:08;100597.06;;;10.84;63.65
45253;BME280;63171;50.520;30.486;2022-09-09T00:59:07;100603.53;;;10.77;63.80
45253;BME280;63171;50.520;30.486;2022-09-09T01:00:18;100609.84;;;10.90;63.95
45253;BME280;63171;50.520;30.486;2022-09-09T01:01:11;100608.56;;;10.82;63.87
45253;BME280;63171;50.520;30.486;2022-09-09T01:02:07;100613.38;;;10.89;64.00
45253;BME280;63171;50.520;30.486;2022-09-09T01:03:06;100620.31;;;10.90;63.74
45253;BME280;63171;50.520;30.486;2022-09-09T01:04:04;100615.72;;;10.95;63.94
45253;BME280;63171;50.520;30.486;2022-09-09T01:05:05;100619.84;;;11.33;64.19
45253;BME280;63171;50.520;30.486;2022-09-09T01:06:01;100616.16;;;11.52;64.04
45253;BME280;63171;50.520;30.486;2022-09-09T01:06:57;100618.53;;;11.57;64.23
45253;BME280;63171;50.520;30.486;2022-09-09T01:07:52;100615.50;;;11.65;63.87
45253;BME280;63171;50.520;30.486;2022-09-09T01:09:07;100610.16;;;11.17;63.30
45253;BME280;63171;50.520;30.486;2022-09-09T01:10:05;100623.47;;;11.30;63.55
45253;BME280;63171;50.520;30.486;2022-09-09T01:10:58;100610.56;;;11.43;63.62
45253;BME280;63171;50.520;30.486;2022-09-09T01:11:58;100612.25;;;11.44;63.13
45253;BME280;63171;50.520;30.486;2022-09-09T01:12:56;100617.66;;;11.25;63.20
45253;BME280;63171;50.520;30.486;2022-09-09T01:13:55;100617.94;;;11.19;63.10
45253;BME280;63171;50.520;30.486;2022-09-09T01:14:52;100620.38;;;11.39;63.18
45253;BME280;63171;50.520;30.486;2022-09-09T01:15:46;100616.28;;;11.34;63.06
45253;BME280;63171;50.520;30.486;2022-09-09T01:16:37;100616.44;;;11.64;63.40
45253;BME280;63171;50.520;30.486;2022-09-09T01:17:36;100617.44;;;11.61;63.13
45253;BME280;63171;50.520;30.486;2022-09-09T01:18:34;100613.94;;;11.45;62.82
45253;BME280;63171;50.520;30.486;2022-09-09T01:19:37;100621.78;;;11.62;62.98
45253;BME280;63171;50.520;30.486;2022-09-09T01:20:36;100620.22;;;11.58;62.83
45253;BME280;63171;50.520;30.486;2022-09-09T01:21:38;100619.06;;;11.64;62.85
45253;BME280;63171;50.520;30.486;2022-09-09T01:22:36;100616.63;;;11.76;62.95
45253;BME280;63171;50.520;30.486;2022-09-09T01:23:42;100619.72;;;11.51;62.67
45253;BME280;63171;50.520;30.486;2022-09-09T01:25:07;100614.97;;;11.42;62.70
45253;BME280;63171;50.520;30.486;2022-09-09T01:26:27;100620.28;;;11.25;62.68
45253;BME280;63171;50.520;30.486;2022-09-09T01:27:23;100609.81;;;11.41;62.79
45253;BME280;63171;50.520;30.486;2022-09-09T01:28:19;100613.28;;;11.57;63.14
45253;BME280;63171;50.520;30.486;2022-09-09T01:29:14;100616.75;;;11.73;63.31
45253;BME280;63171;50.520;30.486;2022-09-09T01:30:09;100616.16;;;11.52;63.04
45253;BME280;63171;50.520;30.486;2022-09-09T01:31:00;100614.94;;;11.27;62.89
45253;BME280;63171;50.520;30.486;2022-09-09T01:32:00;100607.09;;;11.42;63.14
45253;BME280;63171;50.520;30.486;2022-09-09T01:32:54;100612.72;;;11.19;62.91
45253;BME280;63171;50.520;30.486;2022-09-09T01:33:45;100611.34;;;11.12;62.90
45253;BME280;63171;50.520;30.486;2022-09-09T01:34:38;100615.25;;;11.20;63.20
45253;BME280;63171;50.520;30.486;2022-09-09T01:35:39;100613.84;;;10.98;62.99
45253;BME280;63171;50.520;30.486;2022-09-09T01:36:35;100617.66;;;10.75;63.18
45253;BME280;63171;50.520;30.486;2022-09-09T01:37:28;100610.03;;;10.70;63.09
45253;BME280;63171;50.520;30.486;2022-09-09T01:38:18;100613.63;;;10.85;63.54
45253;BME280;63171;50.520;30.486;2022-09-09T01:39:11;100605.72;;;10.69;63.56
45253;BME280;63171;50.520;30.486;2022-09-09T01:40:02;100605.94;;;10.82;64.01
45253;BME280;63171;50.520;30.486;2022-09-09T01:40:54;100605.16;;;10.80;63.98
45253;BME280;63171;50.520;30.486;2022-09-09T01:41:52;100598.63;;;11.04;64.45
45253;BME280;63171;50.520;30.486;2022-09-09T01:42:43;100601.75;;;11.28;64.73
45253;BME280;63171;50.520;30.486;2022-09-09T01:43:33;100597.69;;;11.22;64.57
45253;BME280;63171;50.520;30.486;2022-09-09T01:44:25;100602.69;;;11.27;64.81
45253;BME280;63171;50.520;30.486;2022-09-09T01:45:16;100602.09;;;11.22;65.01
45253;BME280;63171;50.520;30.486;2022-09-09T01:46:07;100599.50;;;11.20;64.68
45253;BME280;63171;50.520;30.486;2022-09-09T01:46:59;100596.28;;;11.00;64.62
45253;BME280;63171;50.520;30.486;2022-09-09T01:47:50;100605.75;;;11.02;64.80
45253;BME280;63171;50.520;30.486;2022-09-09T01:49:03;100599.56;;;11.03;64.94
45253;BME280;63171;50.520;30.486;2022-09-09T01:49:56;100606.69;;;10.84;64.82
45253;BME280;63171;50.520;30.486;2022-09-09T01:50:49;100608.16;;;10.55;64.64
45253;BME280;63171;50.520;30.486;2022-09-09T01:51:40;100601.78;;;10.60;64.85
45253;BME280;63171;50.520;30.486;2022-09-09T01:52:36;100606.84;;;10.81;65.06
45253;BME280;63171;50.520;30.486;2022-09-09T01:53:28;100603.44;;;10.96;65.37
45253;BME280;63171;50.520;30.486;2022-09-09T01:54:19;100610.13;;;10.69;64.90
45253;BME280;63171;50.520;30.486;2022-09-09T01:55:11;100605.06;;;10.99;65.42
45253;BME280;63171;50.520;30.486;2022-09-09T01:56:11;100593.94;;;11.11;65.48
45253;BME280;63171;50.520;30.486;2022-09-09T01:57:10;100597.03;;;11.02;65.43
45253;BME280;63171;50.520;30.486;2022-09-09T01:58:19;100593.53;;;10.85;65.44
45253;BME280;63171;50.520;30.486;2022-09-09T01:59:26;100591.59;;;10.72;65.25
45253;BME280;63171;50.520;30.486;2022-09-09T02:00:22;100593.38;;;10.54;65.05
45253;BME280;63171;50.520;30.486;2022-09-09T02:01:29;100594.53;;;10.31;65.11
45253;BME280;63171;50.520;30.486;2022-09-09T02:02:30;100594.47;;;10.50;65.73
45253;BME280;63171;50.520;30.486;2022-09-09T02:03:35;100604.41;;;10.43;65.71
45253;BME280;63171;50.520;30.486;2022-09-09T02:04:37;100598.59;;;10.54;65.82
45253;BME280;63171;50.520;30.486;2022-09-09T02:05:39;100600.47;;;10.69;66.07
45253;BME280;63171;50.520;30.486;2022-09-09T02:06:40;100602.31;;;10.50;66.11
45253;BME280;63171;50.520;30.486;2022-09-09T02:07:49;100597.59;;;10.39;66.17
45253;BME280;63171;50.520;30.486;2022-09-09T02:08:55;100598.53;;;10.38;66.20
45253;BME280;63171;50.520;30.486;2022-09-09T02:09:49;100610.16;;;10.50;66.29
45253;BME280;63171;50.520;30.486;2022-09-09T02:10:45;100604.47;;;10.59;66.50
45253;BME280;63171;50.520;30.486;2022-09-09T02:11:44;100601.06;;;10.74;66.81
45253;BME280;63171;50.520;30.486;2022-09-09T02:12:50;100611.47;;;10.76;66.64
45253;BME280;63171;50.520;30.486;2022-09-09T02:13:43;100600.22;;;10.74;66.73
45253;BME280;63171;50.520;30.486;2022-09-09T02:14:40;100608.81;;;10.93;66.85
45253;BME280;63171;50.520;30.486;2022-09-09T02:15:34;100607.78;;;10.62;66.58
45253;BME280;63171;50.520;30.486;2022-09-09T02:16:31;100611.69;;;10.54;66.57
45253;BME280;63171;50.520;30.486;2022-09-09T02:17:28;100611.19;;;10.47;66.88
45253;BME280;63171;50.520;30.486;2022-09-09T02:18:29;100607.25;;;10.56;66.94
45253;BME280;63171;50.520;30.486;2022-09-09T02:19:24;100612.06;;;10.81;67.27
45253;BME280;63171;50.520;30.486;2022-09-09T02:20:43;100613.34;;;10.74;67.16
45253;BME280;63171;50.520;30.486;2022-09-09T02:21:34;100607.91;;;10.94;67.47
45253;BME280;63171;50.520;30.486;2022-09-09T02:22:27;100607.84;;;10.78;67.21
45253;BME280;63171;50.520;30.486;2022-09-09T02:23:19;100611.09;;;10.66;67.14
45253;BME280;63171;50.520;30.486;2022-09-09T02:24:14;100609.47;;;10.81;67.49
45253;BME280;63171;50.520;30.486;2022-09-09T02:25:14;100608.56;;;11.15;67.80
45253;BME280;63171;50.520;30.486;2022-09-09T02:26:07;100606.72;;;11.17;67.66
45253;BME280;63171;50.520;30.486;2022-09-09T02:27:00;100609.53;;;10.79;67.36
45253;BME280;63171;50.520;30.486;2022-09-09T02:27:55;100608.97;;;11.07;67.77
45253;BME280;63171;50.520;30.486;2022-09-09T02:28:48;100605.13;;;11.30;67.83
45253;BME280;63171;50.520;30.486;2022-09-09T02:29:42;100605.88;;;11.32;67.79
45253;BME280;63171;50.520;30.486;2022-09-09T02:30:34;100609.59;;;11.12;67.31
45253;BME280;63171;50.520;30.486;2022-09-09T02:31:27;100606.72;;;11.17;67.43
45253;BME280;63171;50.520;30.486;2022-09-09T02:32:24;100607.69;;;11.47;67.52
45253;BME280;63171;50.520;30.486;2022-09-09T02:33:15;100614.38;;;11.04;67.13
45253;BME280;63171;50.520;30.486;2022-09-09T02:34:10;100616.63;;;10.77;66.90
45253;BME280;63171;50.520;30.486;2022-09-09T02:35:05;100606.38;;;10.90;67.14
45253;BME280;63171;50.520;30.486;2022-09-09T02:35:58;100607.91;;;10.94;67.02
45253;BME280;63171;50.520;30.486;2022-09-09T02:36:54;100605.84;;;10.83;67.07
45253;BME280;63171;50.520;30.486;2022-09-09T02:37:45;100610.16;;;10.84;67.28
45253;BME280;63171;50.520;30.486;2022-09-09T02:38:39;100609.66;;;11.11;67.76
45253;BME280;63171;50.520;30.486;2022-09-09T02:39:35;100602.66;;;11.11;67.56
45253;BME280;63171;50.520;30.486;2022-09-09T02:40:27;100606.63;;;10.68;67.12
45253;BME280;63171;50.520;30.486;2022-09-09T02:41:25;100608.97;;;10.57;67.25
45253;BME280;63171;50.520;30.486;2022-09-09T02:42:19;100614.47;;;10.85;67.59
45253;BME280;63171;50.520;30.486;2022-09-09T02:43:10;100611.69;;;10.88;67.80
45253;BME280;63171;50.520;30.486;2022-09-09T02:44:01;100609.47;;;10.81;67.67
45253;BME280;63171;50.520;30.486;2022-09-09T02:44:55;100617.34;;;10.46;67.27
45253;BME280;63171;50.520;30.486;2022-09-09T02:45:53;100608.06;;;10.22;67.39
45253;BME280;63171;50.520;30.486;2022-09-09T02:47:00;100609.94;;;10.37;67.91
45253;BME280;63171;50.520;30.486;2022-09-09T02:47:59;100606.50;;;10.18;67.88
45253;BME280;63171;50.520;30.486;2022-09-09T02:48:59;100600.69;;;9.94;68.02
45253;BME280;63171;50.520;30.486;2022-09-09T02:50:03;100604.09;;;9.77;68.17
45253;BME280;63171;50.520;30.486;2022-09-09T02:51:03;100600.75;;;9.73;68.38
45253;BME280;63171;50.520;30.486;2022-09-09T02:52:01;100602.53;;;9.73;68.85
45253;BME280;63171;50.520;30.486;2022-09-09T02:53:02;100607.97;;;9.68;68.95
45253;BME280;63171;50.520;30.486;2022-09-09T02:54:05;100601.63;;;9.55;69.25
45253;BME280;63171;50.520;30.486;2022-09-09T02:55:02;100604.56;;;9.47;69.47
45253;BME280;63171;50.520;30.486;2022-09-09T02:55:56;100599.72;;;9.40;69.67
45253;BME280;63171;50.520;30.486;2022-09-09T02:56:52;100597.25;;;9.37;70.01
45253;BME280;63171;50.520;30.486;2022-09-09T02:57:47;100598.16;;;9.36;70.37
45253;BME280;63171;50.520;30.486;2022-09-09T02:58:41;100589.13;;;9.43;70.83
45253;BME280;63171;50.520;30.486;2022-09-09T02:59:32;100601.88;;;9.30;71.09
45253;BME280;63171;50.520;30.486;2022-09-09T03:00:24;100593.13;;;9.31;71.30
45253;BME280;63171;50.520;30.486;2022-09-09T03:01:16;100598.28;;;9.33;71.73
45253;BME280;63171;50.520;30.486;2022-09-09T03:02:07;100597.94;;;9.40;71.92
45253;BME280;63171;50.520;30.486;2022-09-09T03:03:00;100597.53;;;9.50;72.30
45253;BME280;63171;50.520;30.486;2022-09-09T03:03:50;100605.31;;;9.51;72.53
45253;BME280;63171;50.520;30.486;2022-09-09T03:04:41;100600.13;;;9.68;72.56
45253;BME280;63171;50.520;30.486;2022-09-09T03:05:33;100607.91;;;9.70;72.83
45253;BME280;63171;50.520;30.486;2022-09-09T03:06:25;100609.88;;;9.84;72.92
45253;BME280;63171;50.520;30.486;2022-09-09T03:07:24;100602.03;;;9.84;73.23
45253;BME280;63171;50.520;30.486;2022-09-09T03:08:16;100611.38;;;9.89;73.18
45253;BME280;63171;50.520;30.486;2022-09-09T03:09:07;100612.69;;;9.98;73.52
45253;BME280;63171;50.520;30.486;2022-09-09T03:09:59;100608.13;;;10.20;73.79
45253;BME280;63171;50.520;30.486;2022-09-09T03:10:51;100604.88;;;10.15;73.48
45253;BME280;63171;50.520;30.486;2022-09-09T03:11:44;100610.13;;;9.96;73.49
45253;BME280;63171;50.520;30.486;2022-09-09T03:12:35;100606.19;;;9.88;73.43
45253;BME280;63171;50.520;30.486;2022-09-09T03:13:26;100608.03;;;9.86;73.69
45253;BME280;63171;50.520;30.486;2022-09-09T03:14:17;100607.75;;;9.92;73.73
45253;BME280;63171;50.520;30.486;2022-09-09T03:15:10;100617.53;;;10.24;74.18
45253;BME280;63171;50.520;30.486;2022-09-09T03:16:02;100611.53;;;10.40;74.29
45253;BME280;63171;50.520;30.486;2022-09-09T03:16:57;100616.41;;;10.11;73.96
45253;BME280;63171;50.520;30.486;2022-09-09T03:17:50;100609.28;;;9.96;73.92
45253;BME280;63171;50.520;30.486;2022-09-09T03:18:40;100615.03;;;10.04;74.02
45253;BME280;63171;50.520;30.486;2022-09-09T03:19:30;100612.75;;;10.15;74.15
45253;BME280;63171;50.520;30.486;2022-09-09T03:20:20;100615.44;;;9.95;73.90
45253;BME280;63171;50.520;30.486;2022-09-09T03:21:11;100621.50;;;10.33;74.46
45253;BME280;63171;50.520;30.486;2022-09-09T03:22:02;100609.31;;;10.13;74.39
45253;BME280;63171;50.520;30.486;2022-09-09T03:22:55;100613.00;;;9.92;74.06
45253;BME280;63171;50.520;30.486;2022-09-09T03:23:45;100615.72;;;10.07;74.27
45253;BME280;63171;50.520;30.486;2022-09-09T03:24:36;100618.47;;;10.23;74.56
45253;BME280;63171;50.520;30.486;2022-09-09T03:25:27;100614.63;;;10.48;74.75
45253;BME280;63171;50.520;30.486;2022-09-09T03:26:18;100619.94;;;10.63;74.81
45253;BME280;63171;50.520;30.486;2022-09-09T03:27:10;100617.88;;;10.53;74.49
45253;BME280;63171;50.520;30.486;2022-09-09T03:28:02;100623.44;;;10.47;74.67
45253;BME280;63171;50.520;30.486;2022-09-09T03:28:52;100622.28;;;10.70;74.82
45253;BME280;63171;50.520;30.486;2022-09-09T03:29:47;100623.66;;;10.77;74.80
45253;BME280;63171;50.520;30.486;2022-09-09T03:30:43;100617.66;;;10.57;74.44
45253;BME280;63171;50.520;30.486;2022-09-09T03:31:34;100621.66;;;10.30;74.32
45253;BME280;63171;50.520;30.486;2022-09-09T03:32:25;100625.75;;;10.17;74.25
45253;BME280;63171;50.520;30.486;2022-09-09T03:33:18;100621.56;;;10.31;74.44
45253;BME280;63171;50.520;30.486;2022-09-09T03:34:09;100619.56;;;10.36;74.34
45253;BME280;63171;50.520;30.486;2022-09-09T03:35:00;100625.28;;;10.45;74.46
45253;BME280;63171;50.520;30.486;2022-09-09T03:35:50;100621.56;;;10.31;74.42
45253;BME280;63171;50.520;30.486;2022-09-09T03:36:42;100618.31;;;10.26;74.52
45253;BME280;63171;50.520;30.486;2022-09-09T03:37:33;100616.91;;;10.19;74.36
45253;BME280;63171;50.520;30.486;2022-09-09T03:38:23;100622.88;;;10.40;74.60
45253;BME280;63171;50.520;30.486;2022-09-09T03:39:15;100622.75;;;10.43;74.94
45253;BME280;63171;50.520;30.486;2022-09-09T03:40:07;100630.09;;;10.35;74.90
45253;BME280;63171;50.520;30.486;2022-09-09T03:40:59;100633.41;;;10.39;75.10
45253;BME280;63171;50.520;30.486;2022-09-09T03:41:50;100626.44;;;10.56;75.21
45253;BME280;63171;50.520;30.486;2022-09-09T03:42:41;100628.91;;;10.59;75.13
45253;BME280;63171;50.520;30.486;2022-09-09T03:43:31;100623.81;;;10.56;75.23
45253;BME280;63171;50.520;30.486;2022-09-09T03:44:21;100634.34;;;10.89;75.47
45253;BME280;63171;50.520;30.486;2022-09-09T03:45:13;100626.31;;;11.10;75.60
45253;BME280;63171;50.520;30.486;2022-09-09T03:46:04;100627.56;;;11.03;75.33
45253;BME280;63171;50.520;30.486;2022-09-09T03:46:55;100633.19;;;10.95;75.33
45253;BME280;63171;50.520;30.486;2022-09-09T03:47:45;100632.72;;;11.04;75.46
45253;BME280;63171;50.520;30.486;2022-09-09T03:48:35;100634.19;;;11.10;75.29
45253;BME280;63171;50.520;30.486;2022-09-09T03:49:28;100643.38;;;10.84;74.72
45253;BME280;63171;50.520;30.486;2022-09-09T03:50:18;100646.00;;;10.66;74.91
45253;BME280;63171;50.520;30.486;2022-09-09T03:51:10;100640.59;;;10.87;75.08
45253;BME280;63171;50.520;30.486;2022-09-09T03:52:00;100643.00;;;10.57;74.78
45253;BME280;63171;50.520;30.486;2022-09-09T03:52:52;100637.91;;;10.88;75.02
45253;BME280;63171;50.520;30.486;2022-09-09T03:53:45;100633.09;;;11.14;75.01
45253;BME280;63171;50.520;30.486;2022-09-09T03:54:35;100637.75;;;10.74;74.83
45253;BME280;63171;50.520;30.486;2022-09-09T03:55:25;100637.72;;;10.40;74.44
45253;BME280;63171;50.520;30.486;2022-09-09T03:56:15;100638.22;;;10.48;74.57
45253;BME280;63171;50.520;30.486;2022-09-09T03:57:06;100639.59;;;10.55;74.65
45253;BME280;63171;50.520;30.486;2022-09-09T03:57:56;100637.75;;;10.74;74.74
45253;BME280;63171;50.520;30.486;2022-09-09T03:58:47;100628.81;;;10.78;74.80
45253;BME280;63171;50.520;30.486;2022-09-09T03:59:36;100635.19;;;10.90;74.86
45253;BME280;63171;50.520;30.486;2022-09-09T04:00:29;100632.06;;;11.16;74.66
45253;BME280;63171;50.520;30.486;2022-09-09T04:01:20;100632.31;;;11.12;74.69
45253;BME280;63171;50.520;30.486;2022-09-09T04:02:11;100624.66;;;11.24;74.60
45253;BME280;63171;50.520;30.486;2022-09-09T04:03:01;100626.84;;;11.49;74.57
45253;BME280;63171;50.520;30.486;2022-09-09T04:03:51;100625.44;;;11.27;74.37
45253;BME280;63171;50.520;30.486;2022-09-09T04:04:43;100618.44;;;11.59;74.57
45253;BME280;63171;50.520;30.486;2022-09-09T04:05:33;100614.22;;;11.56;74.26
45253;BME280;63171;50.520;30.486;2022-09-09T04:06:24;100615.91;;;11.41;73.87
45253;BME280;63171;50.520;30.486;2022-09-09T04:07:14;100616.81;;;11.07;73.65
45253;BME280;63171;50.520;30.486;2022-09-09T04:08:05;100620.25;;;10.75;73.35
45253;BME280;63171;50.520;30.486;2022-09-09T04:08:55;100621.56;;;10.83;73.48
45253;BME280;63171;50.520;30.486;2022-09-09T04:09:47;100621.94;;;10.24;72.89
45253;BME280;63171;50.520;30.486;2022-09-09T04:10:37;100623.72;;;10.41;73.24
45253;BME280;63171;50.520;30.486;2022-09-09T04:11:28;100623.59;;;10.61;73.39
45253;BME280;63171;50.520;30.486;2022-09-09T04:12:21;100625.22;;;11.14;73.91
45253;BME280;63171;50.520;30.486;2022-09-09T04:13:13;100626.72;;;11.35;73.87
45253;BME280;63171;50.520;30.486;2022-09-09T04:14:04;100628.53;;;11.50;73.82
45253;BME280;63171;50.520;30.486;2022-09-09T04:14:55;100626.38;;;11.41;73.58
45253;BME280;63171;50.520;30.486;2022-09-09T04:15:51;100634.47;;;11.70;73.66
45253;BME280;63171;50.520;30.486;2022-09-09T04:16:42;100635.06;;;11.26;72.89
45253;BME280;63171;50.520;30.486;2022-09-09T04:17:35;100632.91;;;11.17;73.03
45253;BME280;63171;50.520;30.486;2022-09-09T04:18:26;100639.03;;;11.50;73.12
45253;BME280;63171;50.520;30.486;2022-09-09T04:19:17;100638.94;;;11.68;73.06
45253;BME280;63171;50.520;30.486;2022-09-09T04:20:09;100641.50;;;11.85;73.11
45253;BME280;63171;50.520;30.486;2022-09-09T04:21:01;100633.13;;;11.63;72.54
45253;BME280;63171;50.520;30.486;2022-09-09T04:21:53;100640.44;;;11.56;72.40
45253;BME280;63171;50.520;30.486;2022-09-09T04:22:45;100637.94;;;11.70;72.54
45253;BME280;63171;50.520;30.486;2022-09-09T04:23:35;100638.38;;;11.78;72.49
45253;BME280;63171;50.520;30.486;2022-09-09T04:24:26;100646.94;;;11.98;72.42
45253;BME280;63171;50.520;30.486;2022-09-09T04:25:18;100635.66;;;11.64;71.73
45253;BME280;63171;50.520;30.486;2022-09-09T04:26:10;100642.56;;;11.49;71.66
45253;BME280;63171;50.520;30.486;2022-09-09T04:27:00;100644.69;;;11.59;71.70
45253;BME280;63171;50.520;30.486;2022-09-09T04:27:53;100647.97;;;11.79;71.73
45253;BME280;63171;50.520;30.486;2022-09-09T04:28:44;100653.31;;;11.94;71.72
45253;BME280;63171;50.520;30.486;2022-09-09T04:29:40;100652.94;;;12.00;71.63
45253;BME280;63171;50.520;30.486;2022-09-09T04:30:31;100659.66;;;12.05;71.38
45253;BME280;63171;50.520;30.486;2022-09-09T04:31:23;100657.63;;;11.79;71.11
45253;BME280;63171;50.520;30.486;2022-09-09T04:32:14;100654.75;;;11.50;70.66
45253;BME280;63171;50.520;30.486;2022-09-09T04:33:05;100659.16;;;11.50;70.68
45253;BME280;63171;50.520;30.486;2022-09-09T04:33:56;100658.56;;;11.61;70.58
45253;BME280;63171;50.520;30.486;2022-09-09T04:34:48;100660.66;;;11.38;70.39
45253;BME280;63171;50.520;30.486;2022-09-09T04:35:37;100663.84;;;11.76;70.56
45253;BME280;63171;50.520;30.486;2022-09-09T04:36:28;100670.41;;;12.17;70.69
45253;BME280;63171;50.520;30.486;2022-09-09T04:37:22;100666.56;;;12.22;70.57
45253;BME280;63171;50.520;30.486;2022-09-09T04:38:16;100664.28;;;11.84;70.39
45253;BME280;63171;50.520;30.486;2022-09-09T04:39:07;100659.31;;;11.96;70.17
45253;BME280;63171;50.520;30.486;2022-09-09T04:39:57;100660.91;;;11.82;69.82
45253;BME280;63171;50.520;30.486;2022-09-09T04:40:50;100664.56;;;11.96;69.80
45253;BME280;63171;50.520;30.486;2022-09-09T04:41:41;100671.09;;;12.04;69.82
45253;BME280;63171;50.520;30.486;2022-09-09T04:42:34;100672.69;;;12.07;69.67
45253;BME280;63171;50.520;30.486;2022-09-09T04:43:25;100666.50;;;12.08;69.39
45253;BME280;63171;50.520;30.486;2022-09-09T04:44:15;100668.69;;;12.00;69.37
45253;BME280;63171;50.520;30.486;2022-09-09T04:45:07;100667.84;;;12.15;69.13